Time;durP1;ratioP1;P1;durP2;ratioP2;P2;SDS_P1;SDS_P2;PMS_P1;PMS_P2;Temp;Humidity;BMP_temperature;BMP_pressure;BME280_temperature;BME280_humidity;BME280_pressure;Samples;Min_cycle;Max_cycle;Signal;HPM_P1;HPM_P2
2022/06/28 00:00:51;;;;;;;12.65;9.45;;;;;;;21.76;68.24;101451.78;5026436;28;20517;-69
2022/06/28 00:03:19;;;;;;;14.95;8.90;;;;;;;21.76;68.11;101453.59;5025017;28;20077;-69
2022/06/28 00:05:45;;;;;;;12.48;8.55;;;;;;;21.83;67.94;101458.25;5025171;28;20115;-69
2022/06/28 00:08:12;;;;;;;12.48;9.25;;;;;;;22.05;67.34;101470.59;5027512;28;20050;-69
2022/06/28 00:10:38;;;;;;;12.43;8.70;;;;;;;22.04;67.13;101470.72;5033360;28;20095;-69
2022/06/28 00:13:05;;;;;;;12.25;9.27;;;;;;;21.57;68.97;101473.03;5028026;28;20042;-69
2022/06/28 00:18:28;;;;;;;11.98;9.50;;;;;;;21.64;68.60;101451.97;4962231;28;20044;-69
2022/06/28 00:20:54;;;;;;;14.20;9.90;;;;;;;21.55;69.10;101442.09;4993950;28;20046;-69
2022/06/28 00:23:21;;;;;;;12.40;9.43;;;;;;;21.49;69.20;101438.13;5006540;28;20128;-69
2022/06/28 00:25:47;;;;;;;13.00;10.52;;;;;;;21.57;69.67;101435.66;5023967;28;20050;-69
2022/06/28 00:28:14;;;;;;;14.23;10.05;;;;;;;21.57;69.68;101426.81;5025761;28;20041;-69
2022/06/28 00:30:40;;;;;;;15.73;10.13;;;;;;;21.36;70.42;101443.66;5025927;28;20655;-69
2022/06/28 00:33:06;;;;;;;15.20;10.52;;;;;;;21.62;69.85;101445.91;5025128;28;20045;-69
2022/06/28 00:35:34;;;;;;;17.50;11.13;;;;;;;21.87;69.65;101449.97;5025726;28;20049;-69
2022/06/28 00:38:00;;;;;;;14.98;10.80;;;;;;;21.78;69.86;101459.63;5025934;28;20533;-69
2022/06/28 00:40:27;;;;;;;15.88;12.20;;;;;;;21.90;68.77;101463.91;5031949;28;20049;-69
2022/06/28 00:42:53;;;;;;;15.35;11.43;;;;;;;21.76;70.11;101466.94;5037956;28;20041;-69
2022/06/28 00:45:21;;;;;;;16.27;11.77;;;;;;;21.49;71.12;101459.47;5032517;28;20096;-69
2022/06/28 00:47:47;;;;;;;17.63;12.50;;;;;;;21.50;71.18;101458.50;5024223;28;20049;-69
2022/06/28 00:50:13;;;;;;;16.65;11.77;;;;;;;21.19;72.98;101462.94;5026046;28;20049;-69
2022/06/28 00:53:03;;;;;;;17.50;13.10;;;;;;;21.29;72.93;101463.84;5025178;28;20502;-70
2022/06/28 00:55:30;;;;;;;17.92;12.68;;;;;;;21.41;72.63;101471.78;5025923;28;20103;-70
2022/06/28 00:57:56;;;;;;;18.65;12.57;;;;;;;21.32;72.21;101466.25;5023770;28;20497;-66
2022/06/28 01:00:23;;;;;;;19.95;13.57;;;;;;;21.39;72.41;101453.25;5023087;28;20046;-67
2022/06/28 01:02:49;;;;;;;16.88;12.25;;;;;;;21.14;73.67;101458.97;5023653;28;20061;-67
2022/06/28 01:05:16;;;;;;;17.92;12.02;;;;;;;21.13;72.67;101458.16;5024342;28;20046;-67
2022/06/28 01:07:42;;;;;;;16.75;12.35;;;;;;;21.13;73.25;101460.81;5023635;28;20518;-67
2022/06/28 01:10:10;;;;;;;15.90;12.05;;;;;;;21.16;72.77;101449.03;5030288;28;20506;-66
2022/06/28 01:12:37;;;;;;;18.38;11.80;;;;;;;21.13;72.82;101450.13;5033956;28;20049;-66
2022/06/28 01:15:04;;;;;;;16.27;10.90;;;;;;;21.24;72.34;101454.56;5024348;28;20493;-66
2022/06/28 01:17:30;;;;;;;15.68;11.10;;;;;;;21.20;72.67;101456.66;5025496;28;20041;-66
2022/06/28 01:19:57;;;;;;;16.42;10.82;;;;;;;21.33;71.73;101453.75;5025225;28;20478;-66
2022/06/28 01:22:23;;;;;;;16.45;10.73;;;;;;;21.41;70.96;101445.94;5022628;28;20115;-66
2022/06/28 01:24:51;;;;;;;14.15;10.32;;;;;;;21.53;70.86;101452.06;5024495;28;20130;-67
2022/06/28 01:27:17;;;;;;;17.85;11.50;;;;;;;21.03;72.57;101458.97;5026382;28;20095;-67
2022/06/28 01:29:44;;;;;;;16.38;10.55;;;;;;;21.20;71.80;101447.78;5022021;28;20497;-67
2022/06/28 01:32:11;;;;;;;14.40;10.43;;;;;;;20.98;73.05;101446.06;5024763;28;20111;-67
2022/06/28 01:34:37;;;;;;;16.30;10.63;;;;;;;20.82;73.63;101438.50;5024774;28;20097;-67
2022/06/28 01:37:04;;;;;;;13.85;10.15;;;;;;;21.04;72.57;101445.53;5024290;28;20095;-67
2022/06/28 01:39:31;;;;;;;15.20;10.52;;;;;;;20.68;74.03;101435.28;5025994;28;20122;-66
2022/06/28 01:41:59;;;;;;;16.90;10.27;;;;;;;20.64;73.65;101431.19;5043085;28;20091;-66
2022/06/28 01:44:26;;;;;;;17.95;10.25;;;;;;;20.94;72.71;101425.13;5040710;28;20563;-66
2022/06/28 01:46:52;;;;;;;14.40;10.88;;;;;;;20.93;72.89;101429.59;5025042;28;20045;-66
2022/06/28 01:49:19;;;;;;;15.88;10.60;;;;;;;20.98;71.93;101431.88;5023915;28;20045;-66
2022/06/28 01:51:45;;;;;;;14.07;10.48;;;;;;;20.62;73.94;101441.97;5025145;28;20092;-67
2022/06/28 01:54:12;;;;;;;16.25;11.05;;;;;;;20.82;73.15;101429.66;5028892;28;20088;-67
2022/06/28 01:56:38;;;;;;;17.10;11.50;;;;;;;20.67;73.43;101429.13;5023608;28;20061;-67
2022/06/28 01:59:06;;;;;;;16.42;11.57;;;;;;;20.86;72.93;101431.94;5024581;28;20138;-66
2022/06/28 02:01:32;;;;;;;16.92;11.35;;;;;;;20.95;72.79;101435.66;5024810;28;20512;-67
2022/06/28 02:03:58;;;;;;;18.38;11.73;;;;;;;20.81;73.30;101428.81;5024371;28;20114;-67
2022/06/28 02:06:25;;;;;;;17.10;11.57;;;;;;;21.00;72.50;101435.25;5025256;28;20041;-67
2022/06/28 02:08:51;;;;;;;21.75;11.93;;;;;;;20.99;72.59;101438.91;5030405;28;20130;-66
2022/06/28 02:11:17;;;;;;;16.75;11.63;;;;;;;20.78;73.58;101450.38;5034608;28;20045;-66
2022/06/28 02:13:44;;;;;;;19.25;12.27;;;;;;;20.78;73.87;101446.88;5036576;28;20049;-66
2022/06/28 02:16:11;;;;;;;17.77;12.10;;;;;;;20.75;73.47;101442.66;5026047;28;20049;-66
2022/06/28 02:18:38;;;;;;;20.30;13.05;;;;;;;20.77;73.07;101437.19;5028572;28;20107;-66
2022/06/28 02:21:04;;;;;;;18.60;12.30;;;;;;;20.77;72.28;101429.19;5028583;28;20065;-66
2022/06/28 02:23:31;;;;;;;20.02;12.93;;;;;;;20.27;74.83;101436.00;5042547;28;20049;-66
2022/06/28 02:25:57;;;;;;;18.35;12.00;;;;;;;20.07;75.39;101442.91;5045631;28;20040;-66
2022/06/28 02:28:23;;;;;;;17.98;12.38;;;;;;;19.92;75.56;101452.13;5029226;28;20041;-66
2022/06/28 02:30:50;;;;;;;20.45;12.77;;;;;;;20.04;75.06;101451.16;5028877;28;20517;-66
2022/06/28 02:33:17;;;;;;;22.65;13.23;;;;;;;20.28;74.21;101449.22;5046519;28;20076;-66
2022/06/28 02:41:11;;;;;;;20.98;12.25;;;;;;;20.37;74.14;101468.91;5043898;28;20465;-66
2022/06/28 02:43:38;;;;;;;21.73;13.35;;;;;;;20.49;73.68;101475.94;5045985;28;20098;-66
2022/06/28 02:46:04;;;;;;;25.27;13.48;;;;;;;20.46;73.56;101473.50;5038489;28;20516;-66
2022/06/28 02:48:32;;;;;;;27.38;14.35;;;;;;;20.48;73.64;101481.38;5018027;28;20045;-66
2022/06/28 02:50:58;;;;;;;19.95;13.48;;;;;;;20.50;74.22;101482.94;5043467;28;20072;-66
2022/06/28 02:53:25;;;;;;;21.80;13.52;;;;;;;20.28;75.17;101486.50;5038915;28;20065;-66
2022/06/28 02:55:51;;;;;;;21.45;13.45;;;;;;;20.67;73.61;101481.56;5044259;28;20049;-66
2022/06/28 02:58:17;;;;;;;24.42;14.63;;;;;;;20.62;73.98;101475.78;5029722;28;20045;-66
2022/06/28 03:00:44;;;;;;;22.63;14.00;;;;;;;20.46;74.33;101478.00;5032181;28;20575;-66
2022/06/28 03:03:10;;;;;;;25.88;15.40;;;;;;;20.61;73.44;101484.75;5035761;28;20044;-66
2022/06/28 03:05:38;;;;;;;23.88;14.65;;;;;;;20.07;74.86;101495.31;5047985;28;20486;-66
2022/06/28 03:08:05;;;;;;;27.30;15.57;;;;;;;20.10;74.90;101495.91;5036547;28;20065;-66
2022/06/28 03:10:31;;;;;;;25.30;14.98;;;;;;;20.16;74.85;101500.78;5034202;28;20044;-66
2022/06/28 03:12:57;;;;;;;28.70;15.70;;;;;;;20.07;74.69;101506.81;5030201;28;20476;-66
2022/06/28 03:15:24;;;;;;;28.38;15.68;;;;;;;19.90;75.26;101507.31;5031467;28;20049;-66
2022/06/28 03:17:50;;;;;;;26.70;14.90;;;;;;;20.46;73.26;101509.97;5047442;28;20131;-66
2022/06/28 03:20:16;;;;;;;28.30;16.48;;;;;;;20.52;73.19;101520.97;5044702;28;20068;-66
2022/06/28 03:22:44;;;;;;;24.85;15.20;;;;;;;20.28;73.74;101521.13;5026269;28;20438;-66
2022/06/28 03:25:11;;;;;;;25.67;16.17;;;;;;;20.54;72.82;101523.50;5027684;28;20494;-66
2022/06/28 03:27:37;;;;;;;26.75;15.40;;;;;;;20.44;72.74;101534.03;5027218;28;20046;-66
2022/06/28 03:30:04;;;;;;;27.75;16.63;;;;;;;20.19;73.37;101535.13;5029416;28;20093;-66
2022/06/28 03:32:31;;;;;;;26.48;15.32;;;;;;;20.12;73.64;101536.59;5027846;28;20076;-66
2022/06/28 03:34:57;;;;;;;22.67;15.48;;;;;;;20.06;74.03;101542.41;5029643;28;20547;-67
2022/06/28 03:37:23;;;;;;;27.55;15.88;;;;;;;20.02;74.83;101543.63;5044986;28;20057;-67
2022/06/28 03:39:51;;;;;;;23.55;15.60;;;;;;;20.06;73.92;101547.75;5044579;28;20114;-67
2022/06/28 03:42:18;;;;;;;24.35;15.95;;;;;;;19.67;74.68;101551.66;5045980;28;20045;-66
2022/06/28 03:44:44;;;;;;;22.67;14.55;;;;;;;19.86;74.16;101559.06;5041236;28;20069;-66
2022/06/28 03:47:10;;;;;;;22.45;15.07;;;;;;;19.58;75.31;101554.19;5030444;28;20103;-66
2022/06/28 03:49:37;;;;;;;20.63;13.32;;;;;;;19.53;74.75;101557.19;5045795;28;20069;-66
2022/06/28 03:52:03;;;;;;;26.20;14.25;;;;;;;19.00;76.74;101568.31;5036288;28;20087;-66
2022/06/28 03:54:30;;;;;;;17.30;12.18;;;;;;;18.81;76.70;101579.44;5027473;28;20045;-66
2022/06/28 03:56:58;;;;;;;14.98;11.23;;;;;;;18.69;76.23;101578.53;5027312;28;20049;-66
2022/06/28 03:59:24;;;;;;;18.10;10.82;;;;;;;18.66;77.11;101585.88;5021475;28;20115;-64
2022/06/28 04:01:50;;;;;;;13.50;10.75;;;;;;;18.62;76.54;101587.91;5026232;28;20110;-63
2022/06/28 04:04:17;;;;;;;16.50;10.63;;;;;;;18.62;75.93;101581.75;5024742;28;20045;-63
2022/06/28 04:06:43;;;;;;;14.55;10.25;;;;;;;19.00;74.67;101590.41;5006984;28;20663;-63
2022/06/28 04:09:10;;;;;;;14.77;10.43;;;;;;;19.22;73.51;101579.03;5005536;28;20065;-63
2022/06/28 04:11:36;;;;;;;12.93;9.30;;;;;;;19.59;72.36;101583.31;5003939;28;20081;-63
2022/06/28 04:14:04;;;;;;;13.85;9.77;;;;;;;19.27;72.75;101588.38;5011377;28;20464;-63
2022/06/28 04:16:32;;;;;;;16.77;9.98;;;;;;;19.34;72.74;101589.63;5026515;28;20461;-63
2022/06/28 04:18:58;;;;;;;14.15;9.55;;;;;;;19.58;71.41;101592.28;5022273;28;20049;-63
2022/06/28 04:21:25;;;;;;;14.27;9.82;;;;;;;19.59;71.58;101595.78;5024181;28;20053;-63
2022/06/28 04:23:51;;;;;;;12.60;8.50;;;;;;;19.51;70.79;101595.53;5026158;28;20466;-63
2022/06/28 04:26:18;;;;;;;13.10;9.70;;;;;;;19.47;71.57;101599.38;5027900;28;20038;-63
2022/06/28 04:28:44;;;;;;;13.50;8.55;;;;;;;19.61;70.94;101604.50;5028887;28;20184;-63
2022/06/28 04:31:12;;;;;;;16.98;9.02;;;;;;;19.83;69.62;101594.78;5027021;28;20104;-63
2022/06/28 04:33:38;;;;;;;11.48;8.57;;;;;;;19.95;69.14;101598.31;5034578;28;20049;-63
2022/06/28 04:36:05;;;;;;;11.45;8.80;;;;;;;19.70;69.96;101598.47;5025025;28;20099;-63
2022/06/28 04:38:31;;;;;;;12.38;8.77;;;;;;;19.64;69.99;101605.13;5026169;28;20049;-63
2022/06/28 04:40:58;;;;;;;17.85;9.05;;;;;;;19.49;71.13;101605.41;5023985;28;20452;-63
2022/06/28 04:43:24;;;;;;;11.90;8.68;;;;;;;19.73;70.41;101603.59;5026426;28;20045;-63
2022/06/28 04:45:50;;;;;;;14.35;8.48;;;;;;;19.41;71.44;101601.53;5025759;28;20571;-63
2022/06/28 04:48:18;;;;;;;11.93;8.07;;;;;;;19.62;71.87;101609.69;5023934;28;20127;-63
2022/06/28 04:50:44;;;;;;;13.15;8.05;;;;;;;19.87;70.06;101598.91;5029380;28;20103;-63
2022/06/28 04:53:11;;;;;;;10.77;8.48;;;;;;;20.02;70.46;101609.31;5024091;28;20069;-63
2022/06/28 04:55:37;;;;;;;13.52;8.55;;;;;;;19.63;71.16;101610.53;5023998;28;20084;-63
2022/06/28 04:58:03;;;;;;;10.30;8.20;;;;;;;19.71;70.45;101610.81;5025672;28;20091;-64
2022/06/28 05:00:30;;;;;;;12.90;9.07;;;;;;;19.81;70.10;101607.31;5024440;28;20041;-65
2022/06/28 05:02:57;;;;;;;11.25;8.90;;;;;;;19.53;70.82;101601.56;5023165;28;20127;-65
2022/06/28 05:05:24;;;;;;;11.48;8.27;;;;;;;19.79;70.06;101605.75;5023771;28;20045;-65
2022/06/28 05:07:51;;;;;;;12.60;8.57;;;;;;;19.89;69.73;101601.41;5024475;28;20464;-65
2022/06/28 05:10:17;;;;;;;10.50;8.00;;;;;;;19.58;70.02;101604.75;5022732;28;20065;-65
2022/06/28 05:12:43;;;;;;;11.85;8.52;;;;;;;19.79;70.18;101605.75;5025064;28;20041;-65
2022/06/28 05:15:11;;;;;;;14.18;8.38;;;;;;;20.21;69.15;101597.09;5024836;28;20091;-64
2022/06/28 05:17:37;;;;;;;14.35;8.05;;;;;;;20.30;68.01;101603.56;5024054;28;20421;-64
2022/06/28 05:20:04;;;;;;;10.60;8.15;;;;;;;20.19;67.75;101599.03;5024536;28;20493;-64
2022/06/28 05:22:32;;;;;;;10.35;7.50;;;;;;;20.07;68.18;101600.00;5023487;28;20125;-64
2022/06/28 05:24:58;;;;;;;12.55;7.55;;;;;;;20.04;68.12;101600.25;5022909;28;20049;-63
2022/06/28 05:27:24;;;;;;;10.82;6.28;;;;;;;19.97;68.40;101599.03;5024151;28;20045;-64
2022/06/28 05:29:51;;;;;;;11.70;7.30;;;;;;;20.02;67.87;101604.84;5023144;28;20494;-64
2022/06/28 05:32:17;;;;;;;11.65;7.13;;;;;;;19.99;68.69;101612.22;5022592;28;20095;-64
2022/06/28 05:34:43;;;;;;;10.48;7.60;;;;;;;20.12;67.31;101618.28;5025084;28;20049;-64
2022/06/28 05:37:11;;;;;;;11.70;7.22;;;;;;;20.21;67.59;101614.91;5017123;28;20170;-64
2022/06/28 05:39:39;;;;;;;13.35;6.97;;;;;;;20.06;68.31;101614.28;5035850;28;20057;-65
2022/06/28 05:42:06;;;;;;;8.95;6.88;;;;;;;19.88;68.33;101615.72;5025422;28;20410;-72
2022/06/28 05:44:32;;;;;;;17.40;6.93;;;;;;;20.34;67.52;101623.66;5022090;28;20572;-71
2022/06/28 05:46:58;;;;;;;10.10;6.72;;;;;;;20.20;68.15;101623.88;5028424;28;20049;-72
2022/06/28 05:49:25;;;;;;;10.13;7.13;;;;;;;20.66;66.70;101618.44;5028389;28;20049;-66
2022/06/28 05:51:51;;;;;;;11.05;7.10;;;;;;;20.85;65.13;101619.50;5027305;28;20049;-66
2022/06/28 05:54:17;;;;;;;11.63;7.00;;;;;;;20.96;65.03;101626.63;5028537;28;20103;-66
2022/06/28 05:56:45;;;;;;;11.65;7.70;;;;;;;20.60;66.53;101630.44;5026685;28;20050;-65
2022/06/28 05:59:11;;;;;;;10.98;7.85;;;;;;;20.85;64.02;101630.16;5035229;28;20049;-66
2022/06/28 06:01:38;;;;;;;10.70;7.28;;;;;;;20.80;65.55;101631.53;5028889;28;20567;-65
2022/06/28 06:04:04;;;;;;;11.55;7.43;;;;;;;20.60;65.83;101629.59;5025599;28;20139;-65
2022/06/28 06:06:31;;;;;;;13.45;7.80;;;;;;;20.54;65.90;101630.94;5026295;28;20095;-65
2022/06/28 06:08:57;;;;;;;13.55;8.35;;;;;;;20.48;67.89;101641.22;5026090;28;20046;-65
2022/06/28 06:11:23;;;;;;;10.75;8.15;;;;;;;20.57;65.84;101630.69;5006932;28;20042;-65
2022/06/28 06:13:51;;;;;;;11.45;8.07;;;;;;;20.69;66.13;101629.72;5007052;28;20391;-65
2022/06/28 06:16:17;;;;;;;13.90;8.18;;;;;;;20.78;65.82;101623.63;5018152;28;20060;-65
2022/06/28 06:18:44;;;;;;;14.15;7.80;;;;;;;21.05;65.20;101630.38;5017939;28;20045;-65
2022/06/28 06:21:10;;;;;;;11.27;7.22;;;;;;;21.15;64.95;101626.00;5027941;28;20045;-65
2022/06/28 06:23:36;;;;;;;18.70;9.05;;;;;;;21.24;64.05;101626.13;5028512;28;20046;-65
2022/06/28 06:26:03;;;;;;;11.68;8.55;;;;;;;21.38;63.89;101630.31;5026951;28;20091;-65
2022/06/28 06:28:30;;;;;;;12.05;8.23;;;;;;;21.66;64.70;101620.81;5026535;28;20041;-65
2022/06/28 06:30:58;;;;;;;12.90;8.40;;;;;;;22.06;62.87;101629.03;5028206;28;20047;-65
2022/06/28 06:33:24;;;;;;;12.48;7.97;;;;;;;22.66;63.35;101636.19;5025788;28;20123;-65
2022/06/28 06:35:50;;;;;;;10.93;7.80;;;;;;;22.93;61.28;101631.09;5026986;28;20049;-65
2022/06/28 06:38:17;;;;;;;14.30;8.23;;;;;;;23.22;59.44;101629.31;5030967;28;20154;-65
2022/06/28 06:40:43;;;;;;;9.05;7.50;;;;;;;23.46;58.14;101628.09;5039785;28;20505;-65
2022/06/28 06:43:09;;;;;;;13.18;8.10;;;;;;;23.61;58.62;101626.69;5032931;28;20072;-65
2022/06/28 06:45:36;;;;;;;11.20;8.50;;;;;;;24.42;55.41;101623.44;5033157;28;20073;-64
2022/06/28 06:48:04;;;;;;;11.40;8.10;;;;;;;24.40;56.36;101629.91;5028263;28;20103;-64
2022/06/28 06:50:30;;;;;;;15.48;9.05;;;;;;;24.91;54.91;101634.75;5025022;28;20096;-64
2022/06/28 06:52:57;;;;;;;12.77;8.00;;;;;;;25.06;54.00;101634.09;5027416;28;20049;-64
2022/06/28 06:55:24;;;;;;;11.95;7.22;;;;;;;24.87;53.40;101628.84;5025350;28;20049;-65
2022/06/28 06:57:51;;;;;;;17.33;8.00;;;;;;;25.41;53.76;101627.09;5027283;28;20046;-65
2022/06/28 07:00:18;;;;;;;11.25;7.95;;;;;;;25.24;52.62;101639.50;5032692;28;20127;-65
2022/06/28 07:02:44;;;;;;;11.63;8.02;;;;;;;25.17;52.25;101631.22;5026389;28;20505;-64
2022/06/28 07:05:12;;;;;;;12.75;8.57;;;;;;;24.81;52.07;101629.44;5026634;28;20571;-64
2022/06/28 07:07:39;;;;;;;13.25;8.38;;;;;;;24.55;52.02;101644.53;5038716;28;20040;-64
2022/06/28 07:10:06;;;;;;;10.75;8.50;;;;;;;24.35;53.62;101654.50;5036734;28;20045;-64
2022/06/28 07:12:32;;;;;;;14.52;8.77;;;;;;;24.25;56.55;101642.94;5020727;28;20172;-64
2022/06/28 07:14:59;;;;;;;12.02;8.57;;;;;;;24.77;53.53;101644.13;5026834;28;20082;-64
2022/06/28 07:17:25;;;;;;;12.77;8.10;;;;;;;25.31;51.79;101648.66;5038482;28;20083;-64
2022/06/28 07:19:51;;;;;;;11.77;7.97;;;;;;;25.40;50.49;101654.94;5046764;28;20041;-64
2022/06/28 07:22:19;;;;;;;11.13;8.30;;;;;;;25.26;51.19;101648.25;5043928;28;20049;-64
2022/06/28 07:24:45;;;;;;;13.52;8.05;;;;;;;25.41;51.95;101651.25;5024588;28;20759;-65
2022/06/28 07:27:12;;;;;;;10.45;7.38;;;;;;;25.48;50.21;101655.84;5028922;28;20100;-65
2022/06/28 07:29:38;;;;;;;11.82;8.40;;;;;;;24.86;50.99;101654.03;5025837;28;20081;-65
2022/06/28 07:32:05;;;;;;;11.55;8.60;;;;;;;24.72;51.37;101662.53;5031007;28;20041;-65
2022/06/28 07:34:32;;;;;;;13.05;8.27;;;;;;;24.69;53.89;101663.66;5046101;28;20072;-65
2022/06/28 07:36:58;;;;;;;14.15;8.35;;;;;;;25.49;50.81;101659.38;5038339;28;20308;-65
2022/06/28 07:39:26;;;;;;;9.63;7.28;;;;;;;25.83;50.03;101657.69;5024647;28;20099;-65
2022/06/28 07:41:53;;;;;;;12.65;7.30;;;;;;;25.97;49.02;101651.78;5047433;28;20440;-65
2022/06/28 07:44:20;;;;;;;11.25;7.45;;;;;;;26.79;46.32;101658.47;5045388;28;20041;-65
2022/06/28 07:46:46;;;;;;;12.00;6.72;;;;;;;26.94;47.65;101663.09;5024795;28;20044;-65
2022/06/28 07:49:12;;;;;;;8.13;6.70;;;;;;;27.16;48.96;101666.22;5030657;28;20114;-66
2022/06/28 07:54:23;;;;;;;8.55;6.68;;;;;;;25.84;47.92;101666.59;5039218;28;20700;-65
2022/06/28 07:56:51;;;;;;;9.40;6.95;;;;;;;26.26;48.46;101674.84;5029470;28;20087;-65
2022/06/28 07:59:17;;;;;;;10.98;7.00;;;;;;;26.48;47.17;101675.16;5025136;28;20049;-65
2022/06/28 08:01:43;;;;;;;9.93;7.05;;;;;;;26.76;46.50;101678.47;5037666;28;20147;-65
2022/06/28 08:04:11;;;;;;;9.80;7.03;;;;;;;26.08;45.39;101680.22;5043586;28;20073;-65
2022/06/28 08:06:38;;;;;;;11.02;6.38;;;;;;;25.52;47.62;101678.75;5015366;28;20064;-65
2022/06/28 08:09:05;;;;;;;8.23;6.80;;;;;;;25.39;49.33;101691.66;5027244;28;20041;-65
2022/06/28 08:11:32;;;;;;;14.63;7.32;;;;;;;26.02;47.39;101689.75;5025620;28;20065;-65
2022/06/28 08:14:00;;;;;;;11.75;6.28;;;;;;;26.61;47.35;101688.16;5037531;28;20516;-65
2022/06/28 08:16:26;;;;;;;7.80;5.97;;;;;;;26.55;46.22;101694.19;5044697;28;20049;-65
2022/06/28 08:18:52;;;;;;;7.60;5.93;;;;;;;26.15;45.42;101692.91;5036744;28;20571;-65
2022/06/28 08:21:19;;;;;;;12.82;6.05;;;;;;;26.35;47.80;101692.72;5044350;28;20390;-65
2022/06/28 08:23:45;;;;;;;9.30;6.10;;;;;;;26.79;46.01;101694.28;5034131;28;20460;-65
2022/06/28 08:26:12;;;;;;;10.50;6.20;;;;;;;27.30;45.66;101692.50;5032122;28;20420;-65
2022/06/28 08:28:38;;;;;;;16.13;6.80;;;;;;;26.73;43.02;101691.41;5030091;28;20065;-65
2022/06/28 08:31:06;;;;;;;8.27;6.82;;;;;;;27.67;43.64;101692.06;5025803;28;20060;-65
2022/06/28 08:33:32;;;;;;;8.05;5.55;;;;;;;27.56;41.92;101695.94;5032755;28;20095;-65
2022/06/28 08:35:58;;;;;;;9.40;5.88;;;;;;;27.97;41.92;101697.63;5026882;28;20545;-65
2022/06/28 08:38:25;;;;;;;7.75;5.38;;;;;;;28.58;38.76;101688.13;5025760;28;20088;-65
2022/06/28 08:40:52;;;;;;;11.98;5.53;;;;;;;28.77;39.09;101689.59;5023863;28;20061;-65
2022/06/28 08:43:19;;;;;;;12.10;5.82;;;;;;;29.27;39.54;101691.91;5032103;28;20613;-65
2022/06/28 08:45:46;;;;;;;7.03;5.40;;;;;;;29.70;38.34;101696.69;5025614;28;20791;-65
2022/06/28 08:48:21;;;;;;;8.50;4.55;;;;;;;29.62;36.55;101696.75;5040300;28;20048;-65
2022/06/28 08:50:52;;;;;;;6.72;4.50;;;;;;;28.56;38.60;101700.97;5031513;28;20113;-65
2022/06/28 08:53:22;;;;;;;9.13;4.95;;;;;;;27.93;38.91;101703.53;5045412;28;20051;-65
2022/06/28 08:55:50;;;;;;;8.82;5.82;;;;;;;27.76;40.26;101699.13;5042786;28;20057;-65
2022/06/28 08:58:18;;;;;;;7.05;4.88;;;;;;;28.22;40.42;101708.44;5022861;28;20045;-72
2022/06/28 09:00:44;;;;;;;9.35;5.60;;;;;;;28.39;38.93;101699.28;5024503;28;20050;-72
2022/06/28 09:03:10;;;;;;;5.43;4.43;;;;;;;28.20;42.00;101707.75;5042071;28;20040;-71
2022/06/28 09:05:38;;;;;;;10.48;5.20;;;;;;;28.67;39.42;101705.13;5042223;28;20049;-71
2022/06/28 09:08:05;;;;;;;7.68;5.13;;;;;;;29.06;38.15;101697.06;5030971;28;20076;-71
2022/06/28 09:10:32;;;;;;;6.32;4.50;;;;;;;29.32;36.80;101697.63;5023401;28;20064;-71
2022/06/28 09:13:06;;;;;;;7.32;4.40;;;;;;;29.55;39.03;101709.31;5003034;28;20100;-71
2022/06/28 09:15:47;;;;;;;6.45;4.55;;;;;;;29.65;39.60;101701.78;5004981;28;20042;-71
2022/06/28 09:18:14;;;;;;;6.00;3.77;;;;;;;29.78;36.62;101701.19;5003335;28;20072;-71
2022/06/28 09:20:42;;;;;;;7.03;3.53;;;;;;;29.82;35.81;101702.53;5029368;28;20342;-71
2022/06/28 09:23:22;;;;;;;5.90;3.42;;;;;;;30.24;34.80;101710.09;5019360;28;20045;-71
2022/06/28 09:25:48;;;;;;;5.82;3.33;;;;;;;30.35;36.08;101701.53;5024154;28;20050;-71
2022/06/28 09:28:23;;;;;;;4.43;3.05;;;;;;;30.13;36.01;101708.69;5021877;28;20096;-71
2022/06/28 09:30:50;;;;;;;4.20;2.90;;;;;;;30.57;31.92;101707.91;5012664;28;20398;-71
2022/06/28 09:33:26;;;;;;;5.32;3.17;;;;;;;30.61;32.91;101701.97;5024820;28;20103;-71
2022/06/28 09:35:54;;;;;;;3.95;2.80;;;;;;;30.50;36.02;101707.84;5022675;28;20053;-71
2022/06/28 09:38:30;;;;;;;10.35;3.10;;;;;;;31.16;34.50;101703.31;5024327;28;20099;-71
2022/06/28 09:40:57;;;;;;;5.70;2.95;;;;;;;30.52;32.54;101703.09;5023916;28;20203;-71
2022/06/28 09:43:31;;;;;;;7.55;3.28;;;;;;;29.77;34.89;101708.47;5019301;28;20045;-71
2022/06/28 09:45:58;;;;;;;8.18;3.35;;;;;;;30.38;34.97;101702.00;5024899;28;20042;-71
2022/06/28 09:48:24;;;;;;;5.55;2.90;;;;;;;30.80;36.21;101704.09;5026837;28;20037;-71
2022/06/28 09:50:59;;;;;;;5.82;3.03;;;;;;;30.99;36.03;101710.00;5029280;28;20083;-71
2022/06/28 09:53:28;;;;;;;6.57;2.88;;;;;;;31.39;32.96;101695.88;5026196;28;20555;-71
2022/06/28 09:55:59;;;;;;;6.85;2.75;;;;;;;31.05;33.03;101696.53;5025129;28;20179;-71
2022/06/28 09:58:26;;;;;;;4.63;2.80;;;;;;;31.05;34.36;101693.81;5025161;28;20495;-71
2022/06/28 10:00:52;;;;;;;4.47;2.40;;;;;;;30.40;33.18;101693.72;5024583;28;20053;-71
2022/06/28 10:03:19;;;;;;;6.97;2.70;;;;;;;30.15;33.01;101697.69;5019935;28;20069;-71
2022/06/28 10:05:47;;;;;;;11.02;2.88;;;;;;;29.49;33.49;101700.03;5024557;28;20072;-71
2022/06/28 10:08:15;;;;;;;6.40;3.30;;;;;;;29.13;34.67;101698.03;5023886;28;20517;-70
2022/06/28 10:10:41;;;;;;;5.70;2.70;;;;;;;29.88;36.70;101696.41;5023009;28;20049;-70
2022/06/28 10:15:58;;;;;;;5.85;3.20;;;;;;;28.93;33.24;101703.91;5030465;28;20056;-71
2022/06/28 10:18:26;;;;;;;5.40;2.78;;;;;;;28.55;36.56;101701.97;5023981;28;20095;-71
2022/06/28 10:20:52;;;;;;;3.92;2.50;;;;;;;29.01;34.75;101687.63;5024160;28;20065;-71
2022/06/28 10:23:25;;;;;;;5.45;2.92;;;;;;;29.74;36.43;101700.72;5021659;28;20454;-71
2022/06/28 10:26:02;;;;;;;3.47;2.33;;;;;;;30.56;31.43;101688.13;5024256;28;20103;-71
2022/06/28 10:28:35;;;;;;;7.60;3.15;;;;;;;30.69;31.00;101685.63;5024118;28;20111;-71
2022/06/28 10:31:34;;;;;;;5.30;2.67;;;;;;;30.38;31.09;101684.91;5023351;28;20077;-71
2022/06/28 10:34:02;;;;;;;4.18;2.20;;;;;;;29.95;31.22;101681.13;5028887;28;20060;-71
2022/06/28 10:36:32;;;;;;;4.38;2.70;;;;;;;28.97;32.32;101697.09;5027087;28;20045;-70
2022/06/28 10:39:14;;;;;;;4.82;2.50;;;;;;;28.64;35.46;101690.13;5023940;28;20055;-70
2022/06/28 10:41:42;;;;;;;6.45;2.63;;;;;;;29.28;35.30;101682.78;5028536;28;20046;-70
2022/06/28 10:44:11;;;;;;;4.47;3.00;;;;;;;30.08;32.75;101684.03;5028726;28;20546;-70
2022/06/28 10:46:37;;;;;;;3.65;2.60;;;;;;;30.93;30.70;101684.50;5027335;28;20488;-70
2022/06/28 10:49:12;;;;;;;4.72;2.45;;;;;;;30.90;32.34;101685.69;5026207;28;20045;-70
2022/06/28 10:52:10;;;;;;;4.93;2.58;;;;;;;31.43;32.54;101683.63;5026300;28;20052;-71
2022/06/28 10:54:40;;;;;;;6.80;2.63;;;;;;;31.65;32.31;101685.34;5028053;28;20068;-71
2022/06/28 10:57:23;;;;;;;6.78;2.72;;;;;;;30.18;32.36;101673.81;5030139;28;20116;-71
2022/06/28 10:59:51;;;;;;;4.38;2.25;;;;;;;30.84;31.09;101669.38;5010712;28;20048;-71
2022/06/28 11:02:18;;;;;;;5.80;2.53;;;;;;;31.08;30.44;101674.47;5025696;28;20383;-71
2022/06/28 11:04:46;;;;;;;2.28;1.90;;;;;;;31.32;30.42;101678.72;5035044;28;20493;-71
2022/06/28 11:07:23;;;;;;;3.17;2.13;;;;;;;31.96;27.07;101666.00;5048222;28;20055;-72
2022/06/28 11:10:09;;;;;;;4.00;2.10;;;;;;;32.40;29.79;101667.59;5046066;28;20515;-71
2022/06/28 11:12:38;;;;;;;7.18;2.17;;;;;;;32.58;26.79;101660.59;5006893;28;20050;-71
2022/06/28 11:15:07;;;;;;;3.30;1.90;;;;;;;32.27;27.72;101668.31;5007208;28;20116;-71
2022/06/28 11:17:35;;;;;;;3.28;1.98;;;;;;;32.20;27.24;101668.28;5011065;28;20135;-71
2022/06/28 11:20:03;;;;;;;5.20;2.17;;;;;;;32.04;26.44;101656.88;5045250;28;20045;-71
2022/06/28 11:22:31;;;;;;;4.22;2.40;;;;;;;32.49;27.47;101661.78;5039483;28;20057;-71
2022/06/28 11:25:01;;;;;;;7.03;2.30;;;;;;;31.44;25.27;101660.91;5027335;28;20386;-71
2022/06/28 11:27:27;;;;;;;3.78;2.17;;;;;;;31.89;27.70;101651.56;5038667;28;20091;-71
2022/06/28 11:30:01;;;;;;;5.35;2.45;;;;;;;31.88;26.35;101657.16;5026744;28;20046;-71
2022/06/28 11:32:30;;;;;;;4.05;2.22;;;;;;;31.81;30.47;101655.25;5026557;28;20053;-71